Sittingbourne, United Kingdom
Current Conditions -  °F | °C
As of 3:50 PM on Friday 19 Dec 2014 (Local Time) from EGMC Reporting Station
Few Clouds Few Clouds  
Wind Chill:   Ceiling: Unl
Heat Index:   Visibility: 6mi
Dew Point:   Wind: 14mph
Humidity: 62%   Direction: 260°W
Pressure: 30.03"   Gusts: NA
Location:  51.34°N, 0.73°E
Report Text: EGMC 191550Z 26012KT 9999 FEW038 08/01 Q1017
Loading
Personal Weather Stations






























Interactive Weather Map New forecast layout! Learn more

10-Day Weather Forecast

Advertisements
Track Severe Weather on mobile